sensor_id;sensor_type;location;lat;lon;timestamp;pressure;altitude;pressure_sealevel;temperature;humidity
70229;BME280;57617;51.988;5.854;2023-05-03T00:00:58;102478.59;;;11.63;49.51
70229;BME280;57617;51.988;5.854;2023-05-03T00:03:25;102479.66;;;11.69;49.68
70229;BME280;57617;51.988;5.854;2023-05-03T00:05:51;102476.94;;;11.69;49.17
70229;BME280;57617;51.988;5.854;2023-05-03T00:08:17;102476.94;;;11.69;49.09
70229;BME280;57617;51.988;5.854;2023-05-03T00:10:42;102474.00;;;11.64;49.25
70229;BME280;57617;51.988;5.854;2023-05-03T00:13:08;102476.09;;;11.62;49.31
70229;BME280;57617;51.988;5.854;2023-05-03T00:15:33;102479.25;;;11.65;49.26
70229;BME280;57617;51.988;5.854;2023-05-03T00:17:58;102478.41;;;11.65;49.29
70229;BME280;57617;51.988;5.854;2023-05-03T00:20:24;102471.69;;;11.61;49.47
70229;BME280;57617;51.988;5.854;2023-05-03T00:22:50;102474.34;;;11.54;49.30
70229;BME280;57617;51.988;5.854;2023-05-03T00:25:15;102481.28;;;11.50;49.37
70229;BME280;57617;51.988;5.854;2023-05-03T00:27:41;102469.34;;;11.51;49.42
70229;BME280;57617;51.988;5.854;2023-05-03T00:30:07;102470.41;;;11.50;49.68
70229;BME280;57617;51.988;5.854;2023-05-03T00:32:33;102468.28;;;11.46;49.25
70229;BME280;57617;51.988;5.854;2023-05-03T00:34:58;102475.19;;;11.48;49.46
70229;BME280;57617;51.988;5.854;2023-05-03T00:37:24;102480.00;;;11.40;49.69
70229;BME280;57617;51.988;5.854;2023-05-03T00:39:49;102471.16;;;11.25;49.74
70229;BME280;57617;51.988;5.854;2023-05-03T00:42:15;102476.59;;;11.25;49.43
70229;BME280;57617;51.988;5.854;2023-05-03T00:44:41;102481.00;;;11.19;49.94
70229;BME280;57617;51.988;5.854;2023-05-03T00:47:07;102477.00;;;11.15;49.87
70229;BME280;57617;51.988;5.854;2023-05-03T00:49:32;102482.63;;;11.14;50.31
70229;BME280;57617;51.988;5.854;2023-05-03T00:51:58;102474.03;;;11.10;49.96
70229;BME280;57617;51.988;5.854;2023-05-03T00:54:26;102470.69;;;11.08;50.12
70229;BME280;57617;51.988;5.854;2023-05-03T00:56:52;102458.13;;;11.01;50.25
70229;BME280;57617;51.988;5.854;2023-05-03T00:59:18;102461.88;;;11.06;50.17
70229;BME280;57617;51.988;5.854;2023-05-03T01:01:50;102470.69;;;11.08;50.05
70229;BME280;57617;51.988;5.854;2023-05-03T01:04:16;102470.47;;;11.03;50.42
70229;BME280;57617;51.988;5.854;2023-05-03T01:07:07;102474.63;;;10.99;51.10
70229;BME280;57617;51.988;5.854;2023-05-03T01:18:10;102471.84;;;10.86;51.29
70229;BME280;57617;51.988;5.854;2023-05-03T01:20:36;102466.00;;;10.89;50.64
70229;BME280;57617;51.988;5.854;2023-05-03T01:23:07;102480.84;;;10.87;50.91
70229;BME280;57617;51.988;5.854;2023-05-03T01:25:35;102480.41;;;10.83;50.53
70229;BME280;57617;51.988;5.854;2023-05-03T01:28:00;102467.84;;;10.76;51.12
70229;BME280;57617;51.988;5.854;2023-05-03T01:30:26;102483.91;;;10.77;51.01
70229;BME280;57617;51.988;5.854;2023-05-03T01:32:58;102488.53;;;10.77;51.41
70229;BME280;57617;51.988;5.854;2023-05-03T01:37:59;102469.91;;;10.74;51.21
70229;BME280;57617;51.988;5.854;2023-05-03T01:40:25;102481.84;;;10.79;51.28
70229;BME280;57617;51.988;5.854;2023-05-03T01:42:54;102482.25;;;10.76;51.05
70229;BME280;57617;51.988;5.854;2023-05-03T01:45:19;102478.66;;;10.69;51.05
70229;BME280;57617;51.988;5.854;2023-05-03T01:47:45;102489.91;;;10.66;51.13
70229;BME280;57617;51.988;5.854;2023-05-03T01:50:10;102494.13;;;10.69;51.22
70229;BME280;57617;51.988;5.854;2023-05-03T01:52:36;102476.75;;;10.63;51.15
70229;BME280;57617;51.988;5.854;2023-05-03T01:55:02;102475.91;;;10.63;51.46
70229;BME280;57617;51.988;5.854;2023-05-03T01:57:27;102467.50;;;10.58;51.34
70229;BME280;57617;51.988;5.854;2023-05-03T01:59:52;102477.75;;;10.56;51.41
70229;BME280;57617;51.988;5.854;2023-05-03T02:02:17;102474.13;;;10.49;51.34
70229;BME280;57617;51.988;5.854;2023-05-03T02:04:43;102461.91;;;10.32;51.58
70229;BME280;57617;51.988;5.854;2023-05-03T02:07:08;102476.16;;;10.40;51.78
70229;BME280;57617;51.988;5.854;2023-05-03T02:09:33;102470.94;;;10.39;51.79
70229;BME280;57617;51.988;5.854;2023-05-03T02:11:59;102478.88;;;10.40;51.77
70229;BME280;57617;51.988;5.854;2023-05-03T02:14:24;102480.38;;;10.43;51.85
70229;BME280;57617;51.988;5.854;2023-05-03T02:16:49;102478.06;;;10.40;51.74
70229;BME280;57617;51.988;5.854;2023-05-03T02:19:15;102477.22;;;10.39;51.89
70229;BME280;57617;51.988;5.854;2023-05-03T02:21:40;102472.81;;;10.38;52.01
70229;BME280;57617;51.988;5.854;2023-05-03T02:24:06;102481.56;;;10.34;52.07
70229;BME280;57617;51.988;5.854;2023-05-03T02:26:31;102461.84;;;10.25;52.29
70229;BME280;57617;51.988;5.854;2023-05-03T02:28:56;102472.22;;;10.43;52.12
70229;BME280;57617;51.988;5.854;2023-05-03T02:31:22;102464.91;;;10.43;51.79
70229;BME280;57617;51.988;5.854;2023-05-03T02:33:48;102468.03;;;10.40;52.11
70229;BME280;57617;51.988;5.854;2023-05-03T02:36:13;102463.59;;;10.33;52.01
70229;BME280;57617;51.988;5.854;2023-05-03T02:38:38;102465.72;;;10.37;52.21
70229;BME280;57617;51.988;5.854;2023-05-03T02:41:04;102466.91;;;10.28;52.42
70229;BME280;57617;51.988;5.854;2023-05-03T02:43:29;102464.81;;;10.30;52.24
70229;BME280;57617;51.988;5.854;2023-05-03T02:45:54;102452.66;;;10.26;52.06
70229;BME280;57617;51.988;5.854;2023-05-03T02:48:20;102456.91;;;10.35;52.11
70229;BME280;57617;51.988;5.854;2023-05-03T02:50:45;102460.69;;;10.34;52.12
70229;BME280;57617;51.988;5.854;2023-05-03T02:53:10;102461.53;;;10.35;52.08
70229;BME280;57617;51.988;5.854;2023-05-03T02:55:36;102439.31;;;10.25;51.80
70229;BME280;57617;51.988;5.854;2023-05-03T02:58:02;102442.22;;;10.23;52.13
70229;BME280;57617;51.988;5.854;2023-05-03T03:00:27;102446.47;;;10.32;51.96
70229;BME280;57617;51.988;5.854;2023-05-03T03:02:52;102440.38;;;10.30;51.91
70229;BME280;57617;51.988;5.854;2023-05-03T03:05:18;102441.22;;;10.31;52.44
70229;BME280;57617;51.988;5.854;2023-05-03T03:07:43;102439.81;;;10.35;52.09
70229;BME280;57617;51.988;5.854;2023-05-03T03:10:09;102439.13;;;10.33;52.04
70229;BME280;57617;51.988;5.854;2023-05-03T03:12:35;102422.16;;;10.24;52.27
70229;BME280;57617;51.988;5.854;2023-05-03T03:15:01;102425.75;;;10.31;52.17
70229;BME280;57617;51.988;5.854;2023-05-03T03:17:26;102427.22;;;10.34;51.87
70229;BME280;57617;51.988;5.854;2023-05-03T03:19:51;102423.09;;;10.38;51.62
70229;BME280;57617;51.988;5.854;2023-05-03T03:22:16;102420.78;;;10.35;51.71
70229;BME280;57617;51.988;5.854;2023-05-03T03:24:42;102430.19;;;10.32;52.22
70229;BME280;57617;51.988;5.854;2023-05-03T03:27:07;102418.84;;;10.29;52.07
70229;BME280;57617;51.988;5.854;2023-05-03T03:29:33;102432.44;;;10.29;51.94
70229;BME280;57617;51.988;5.854;2023-05-03T03:31:59;102430.56;;;10.29;52.25
70229;BME280;57617;51.988;5.854;2023-05-03T03:34:24;102434.13;;;10.30;52.47
70229;BME280;57617;51.988;5.854;2023-05-03T03:36:50;102438.66;;;10.23;52.12
70229;BME280;57617;51.988;5.854;2023-05-03T03:39:15;102441.09;;;10.11;52.32
70229;BME280;57617;51.988;5.854;2023-05-03T03:41:40;102438.16;;;10.06;52.30
70229;BME280;57617;51.988;5.854;2023-05-03T03:44:06;102437.72;;;10.09;52.56
70229;BME280;57617;51.988;5.854;2023-05-03T03:46:31;102415.66;;;9.91;52.46
70229;BME280;57617;51.988;5.854;2023-05-03T03:48:57;102443.47;;;10.00;52.45
70229;BME280;57617;51.988;5.854;2023-05-03T03:51:22;102452.41;;;9.94;52.37
70229;BME280;57617;51.988;5.854;2023-05-03T03:53:47;102447.81;;;9.94;52.29
70229;BME280;57617;51.988;5.854;2023-05-03T03:56:13;102443.63;;;9.92;52.91
70229;BME280;57617;51.988;5.854;2023-05-03T03:58:38;102448.22;;;9.91;52.77
70229;BME280;57617;51.988;5.854;2023-05-03T04:01:03;102445.25;;;9.86;52.47
70229;BME280;57617;51.988;5.854;2023-05-03T04:03:29;102445.63;;;9.83;52.45
70229;BME280;57617;51.988;5.854;2023-05-03T04:05:54;102452.47;;;9.79;52.62
70229;BME280;57617;51.988;5.854;2023-05-03T04:08:19;102441.78;;;9.71;53.02
70229;BME280;57617;51.988;5.854;2023-05-03T04:10:45;102449.06;;;9.71;52.91
70229;BME280;57617;51.988;5.854;2023-05-03T04:13:10;102452.22;;;9.74;52.78
70229;BME280;57617;51.988;5.854;2023-05-03T04:15:36;102458.69;;;9.73;53.40
70229;BME280;57617;51.988;5.854;2023-05-03T04:18:01;102455.72;;;9.68;52.82
70229;BME280;57617;51.988;5.854;2023-05-03T04:20:26;102466.91;;;9.59;53.02
70229;BME280;57617;51.988;5.854;2023-05-03T04:22:52;102461.22;;;9.54;53.67
70229;BME280;57617;51.988;5.854;2023-05-03T04:25:17;102460.78;;;9.50;53.54
70229;BME280;57617;51.988;5.854;2023-05-03T04:27:43;102471.56;;;9.44;53.46
70229;BME280;57617;51.988;5.854;2023-05-03T04:30:09;102472.13;;;9.39;53.70
70229;BME280;57617;51.988;5.854;2023-05-03T04:32:36;102464.13;;;9.31;53.64
70229;BME280;57617;51.988;5.854;2023-05-03T04:35:04;102467.28;;;9.35;53.98
70229;BME280;57617;51.988;5.854;2023-05-03T04:37:34;102481.59;;;9.29;53.45
70229;BME280;57617;51.988;5.854;2023-05-03T04:39:59;102477.03;;;9.29;54.04
70229;BME280;57617;51.988;5.854;2023-05-03T04:42:24;102480.19;;;9.33;54.26
70229;BME280;57617;51.988;5.854;2023-05-03T04:44:51;102484.78;;;9.32;53.93
70229;BME280;57617;51.988;5.854;2023-05-03T04:47:16;102482.25;;;9.31;54.45
70229;BME280;57617;51.988;5.854;2023-05-03T04:49:42;102489.75;;;9.29;54.32
70229;BME280;57617;51.988;5.854;2023-05-03T04:52:07;102497.44;;;9.25;54.28
70229;BME280;57617;51.988;5.854;2023-05-03T04:54:34;102503.41;;;9.21;54.27
70229;BME280;57617;51.988;5.854;2023-05-03T04:57:00;102507.91;;;9.14;54.59
70229;BME280;57617;51.988;5.854;2023-05-03T04:59:25;102518.75;;;9.14;54.44
70229;BME280;57617;51.988;5.854;2023-05-03T05:01:50;102519.03;;;9.19;54.80
70229;BME280;57617;51.988;5.854;2023-05-03T05:04:15;102517.81;;;9.21;54.93
70229;BME280;57617;51.988;5.854;2023-05-03T05:06:41;102521.16;;;9.23;54.98
70229;BME280;57617;51.988;5.854;2023-05-03T05:09:06;102523.50;;;9.26;54.92
70229;BME280;57617;51.988;5.854;2023-05-03T05:11:32;102520.22;;;9.31;55.29
70229;BME280;57617;51.988;5.854;2023-05-03T05:13:57;102516.75;;;9.37;54.89
70229;BME280;57617;51.988;5.854;2023-05-03T05:16:23;102483.50;;;9.14;54.81
70229;BME280;57617;51.988;5.854;2023-05-03T05:18:48;102527.66;;;9.43;54.66
70229;BME280;57617;51.988;5.854;2023-05-03T05:21:13;102523.72;;;9.46;55.15
70229;BME280;57617;51.988;5.854;2023-05-03T05:23:39;102497.09;;;9.35;54.96
70229;BME280;57617;51.988;5.854;2023-05-03T05:26:04;102530.72;;;9.55;54.89
70229;BME280;57617;51.988;5.854;2023-05-03T05:28:29;102528.91;;;9.62;54.91
70229;BME280;57617;51.988;5.854;2023-05-03T05:30:55;102528.16;;;9.68;54.99
70229;BME280;57617;51.988;5.854;2023-05-03T05:33:20;102498.94;;;9.49;55.57
70229;BME280;57617;51.988;5.854;2023-05-03T05:35:46;102531.84;;;9.81;55.33
70229;BME280;57617;51.988;5.854;2023-05-03T05:38:16;102522.25;;;9.85;55.27
70229;BME280;57617;51.988;5.854;2023-05-03T05:40:42;102526.41;;;10.02;55.32
70229;BME280;57617;51.988;5.854;2023-05-03T05:43:07;102535.47;;;10.09;55.50
70229;BME280;57617;51.988;5.854;2023-05-03T05:45:33;102542.00;;;10.15;55.64
70229;BME280;57617;51.988;5.854;2023-05-03T05:47:59;102538.31;;;10.22;55.55
70229;BME280;57617;51.988;5.854;2023-05-03T05:50:24;102536.91;;;10.33;55.28
70229;BME280;57617;51.988;5.854;2023-05-03T05:52:50;102536.84;;;10.47;55.58
70229;BME280;57617;51.988;5.854;2023-05-03T05:55:17;102533.00;;;10.69;55.05
70229;BME280;57617;51.988;5.854;2023-05-03T05:57:42;102528.34;;;10.91;54.78
70229;BME280;57617;51.988;5.854;2023-05-03T06:00:08;102534.69;;;11.04;54.20
70229;BME280;57617;51.988;5.854;2023-05-03T06:02:39;102536.41;;;11.12;53.82
70229;BME280;57617;51.988;5.854;2023-05-03T06:05:04;102528.47;;;11.17;53.57
70229;BME280;57617;51.988;5.854;2023-05-03T06:07:30;102531.66;;;11.33;53.48
70229;BME280;57617;51.988;5.854;2023-05-03T06:09:55;102532.13;;;11.50;53.39
70229;BME280;57617;51.988;5.854;2023-05-03T06:12:20;102527.34;;;11.58;52.87
70229;BME280;57617;51.988;5.854;2023-05-03T06:14:46;102533.88;;;11.64;52.84
70229;BME280;57617;51.988;5.854;2023-05-03T06:17:11;102536.41;;;11.72;52.19
70229;BME280;57617;51.988;5.854;2023-05-03T06:19:36;102530.75;;;11.73;51.76
70229;BME280;57617;51.988;5.854;2023-05-03T06:22:03;102523.88;;;11.77;51.77
70229;BME280;57617;51.988;5.854;2023-05-03T06:24:29;102521.75;;;11.79;51.04
70229;BME280;57617;51.988;5.854;2023-05-03T06:26:56;102490.53;;;11.62;51.62
70229;BME280;57617;51.988;5.854;2023-05-03T06:29:22;102519.06;;;11.73;51.29
70229;BME280;57617;51.988;5.854;2023-05-03T06:31:47;102531.81;;;11.79;51.31
70229;BME280;57617;51.988;5.854;2023-05-03T06:34:17;102534.34;;;11.80;51.04
70229;BME280;57617;51.988;5.854;2023-05-03T06:36:44;102537.06;;;11.80;51.04
70229;BME280;57617;51.988;5.854;2023-05-03T06:39:09;102532.00;;;11.71;50.50
70229;BME280;57617;51.988;5.854;2023-05-03T06:41:35;102527.00;;;11.68;50.36
70229;BME280;57617;51.988;5.854;2023-05-03T06:44:00;102520.91;;;11.66;50.13
70229;BME280;57617;51.988;5.854;2023-05-03T06:46:26;102525.09;;;11.68;49.84
70229;BME280;57617;51.988;5.854;2023-05-03T06:48:52;102520.28;;;11.77;49.67
70229;BME280;57617;51.988;5.854;2023-05-03T06:51:21;102522.41;;;11.81;49.18
70229;BME280;57617;51.988;5.854;2023-05-03T06:53:51;102512.13;;;11.83;48.90
70229;BME280;57617;51.988;5.854;2023-05-03T06:56:16;102513.00;;;11.90;49.50
70229;BME280;57617;51.988;5.854;2023-05-03T06:58:42;102511.94;;;11.98;49.56
70229;BME280;57617;51.988;5.854;2023-05-03T07:01:07;102512.59;;;12.00;49.41
70229;BME280;57617;51.988;5.854;2023-05-03T07:03:32;102502.31;;;12.02;49.27
70229;BME280;57617;51.988;5.854;2023-05-03T07:05:58;102506.50;;;12.04;49.12
70229;BME280;57617;51.988;5.854;2023-05-03T07:08:23;102509.44;;;12.09;49.73
70229;BME280;57617;51.988;5.854;2023-05-03T07:10:49;102507.34;;;12.18;49.32
70229;BME280;57617;51.988;5.854;2023-05-03T07:13:14;102506.94;;;12.27;48.95
70229;BME280;57617;51.988;5.854;2023-05-03T07:15:39;102511.53;;;12.27;48.80
70229;BME280;57617;51.988;5.854;2023-05-03T07:18:05;102516.13;;;12.33;48.24
70229;BME280;57617;51.988;5.854;2023-05-03T07:20:30;102522.03;;;12.30;47.75
70229;BME280;57617;51.988;5.854;2023-05-03T07:22:55;102519.91;;;12.32;48.22
70229;BME280;57617;51.988;5.854;2023-05-03T07:25:22;102518.25;;;12.37;48.02
70229;BME280;57617;51.988;5.854;2023-05-03T07:27:47;102527.25;;;12.38;46.98
70229;BME280;57617;51.988;5.854;2023-05-03T07:30:13;102519.91;;;12.38;46.93
70229;BME280;57617;51.988;5.854;2023-05-03T07:32:38;102506.91;;;12.40;47.58
70229;BME280;57617;51.988;5.854;2023-05-03T07:35:04;102508.38;;;12.56;47.85
70229;BME280;57617;51.988;5.854;2023-05-03T07:37:31;102505.19;;;12.65;47.30
70229;BME280;57617;51.988;5.854;2023-05-03T07:39:56;102502.25;;;12.67;46.85
70229;BME280;57617;51.988;5.854;2023-05-03T07:42:21;102493.03;;;12.68;46.90
70229;BME280;57617;51.988;5.854;2023-05-03T07:44:47;102487.56;;;12.74;47.46
70229;BME280;57617;51.988;5.854;2023-05-03T07:47:12;102492.56;;;12.84;46.79
70229;BME280;57617;51.988;5.854;2023-05-03T07:49:37;102487.28;;;12.89;46.97
70229;BME280;57617;51.988;5.854;2023-05-03T07:52:03;102479.09;;;12.95;46.44
70229;BME280;57617;51.988;5.854;2023-05-03T07:54:28;102478.25;;;13.01;46.37
70229;BME280;57617;51.988;5.854;2023-05-03T07:56:53;102470.72;;;13.03;46.46
70229;BME280;57617;51.988;5.854;2023-05-03T07:59:18;102481.56;;;13.10;46.37
70229;BME280;57617;51.988;5.854;2023-05-03T08:01:44;102466.66;;;13.12;46.88
70229;BME280;57617;51.988;5.854;2023-05-03T08:04:09;102465.38;;;13.21;46.42
70229;BME280;57617;51.988;5.854;2023-05-03T08:06:35;102460.94;;;13.27;46.68
70229;BME280;57617;51.988;5.854;2023-05-03T08:09:02;102459.00;;;13.34;45.91
70229;BME280;57617;51.988;5.854;2023-05-03T08:11:28;102456.94;;;13.29;46.48
70229;BME280;57617;51.988;5.854;2023-05-03T08:13:53;102459.63;;;13.36;46.35
70229;BME280;57617;51.988;5.854;2023-05-03T08:16:20;102461.25;;;13.43;45.88
70229;BME280;57617;51.988;5.854;2023-05-03T08:18:45;102462.94;;;13.44;46.44
70229;BME280;57617;51.988;5.854;2023-05-03T08:21:11;102462.53;;;13.41;46.16
70229;BME280;57617;51.988;5.854;2023-05-03T08:23:38;102463.94;;;13.50;46.12
70229;BME280;57617;51.988;5.854;2023-05-03T08:26:04;102465.16;;;13.60;45.70
70229;BME280;57617;51.988;5.854;2023-05-03T08:28:31;102472.47;;;13.66;46.06
70229;BME280;57617;51.988;5.854;2023-05-03T08:30:56;102463.97;;;13.74;45.60
70229;BME280;57617;51.988;5.854;2023-05-03T08:33:22;102461.84;;;13.83;45.27
70229;BME280;57617;51.988;5.854;2023-05-03T08:35:47;102458.16;;;13.95;45.86
70229;BME280;57617;51.988;5.854;2023-05-03T08:38:13;102466.03;;;14.10;45.33
70229;BME280;57617;51.988;5.854;2023-05-03T08:40:39;102469.28;;;14.25;45.18
70229;BME280;57617;51.988;5.854;2023-05-03T08:43:08;102449.09;;;14.26;44.37
70229;BME280;57617;51.988;5.854;2023-05-03T08:45:34;102458.47;;;14.36;45.16
70229;BME280;57617;51.988;5.854;2023-05-03T08:47:59;102465.69;;;14.49;45.07
70229;BME280;57617;51.988;5.854;2023-05-03T08:50:27;102456.56;;;14.55;44.65
70229;BME280;57617;51.988;5.854;2023-05-03T08:52:53;102448.44;;;14.66;44.48
70229;BME280;57617;51.988;5.854;2023-05-03T08:55:18;102441.91;;;14.67;44.54
70229;BME280;57617;51.988;5.854;2023-05-03T08:57:43;102396.47;;;14.48;44.75
70229;BME280;57617;51.988;5.854;2023-05-03T09:00:09;102425.19;;;14.75;44.25
70229;BME280;57617;51.988;5.854;2023-05-03T09:02:37;102420.94;;;14.79;44.28
70229;BME280;57617;51.988;5.854;2023-05-03T09:08:00;102433.22;;;15.06;44.15
70229;BME280;57617;51.988;5.854;2023-05-03T09:10:27;102434.56;;;15.15;43.85
70229;BME280;57617;51.988;5.854;2023-05-03T09:12:57;102446.03;;;15.24;43.29
70229;BME280;57617;51.988;5.854;2023-05-03T09:15:24;102445.63;;;15.38;42.87
70229;BME280;57617;51.988;5.854;2023-05-03T09:20:34;102451.03;;;15.45;42.74
70229;BME280;57617;51.988;5.854;2023-05-03T09:23:00;102458.22;;;15.57;42.39
70229;BME280;57617;51.988;5.854;2023-05-03T09:28:11;102456.59;;;15.79;42.64
70229;BME280;57617;51.988;5.854;2023-05-03T09:30:36;102448.75;;;15.83;42.46
70229;BME280;57617;51.988;5.854;2023-05-03T09:33:02;102460.22;;;15.91;42.52
70229;BME280;57617;51.988;5.854;2023-05-03T09:35:29;102452.34;;;15.95;41.98
70229;BME280;57617;51.988;5.854;2023-05-03T09:37:54;102447.97;;;16.05;42.33
70229;BME280;57617;51.988;5.854;2023-05-03T09:40:19;102444.41;;;16.16;42.14
70229;BME280;57617;51.988;5.854;2023-05-03T09:43:07;102439.63;;;16.35;39.88
70229;BME280;57617;51.988;5.854;2023-05-03T09:45:34;102433.44;;;16.39;41.66
70229;BME280;57617;51.988;5.854;2023-05-03T09:48:03;102437.59;;;16.53;40.37
70229;BME280;57617;51.988;5.854;2023-05-03T09:50:34;102434.50;;;16.62;40.36
70229;BME280;57617;51.988;5.854;2023-05-03T09:53:04;102436.03;;;16.69;41.11
70229;BME280;57617;51.988;5.854;2023-05-03T09:55:38;102437.56;;;16.76;39.43
70229;BME280;57617;51.988;5.854;2023-05-03T09:58:05;102444.00;;;16.82;40.14
70229;BME280;57617;51.988;5.854;2023-05-03T10:00:40;102432.78;;;16.83;39.65
70229;BME280;57617;51.988;5.854;2023-05-03T10:03:13;102436.84;;;16.92;40.23
70229;BME280;57617;51.988;5.854;2023-05-03T10:05:45;102434.03;;;17.04;40.14
70229;BME280;57617;51.988;5.854;2023-05-03T10:10:57;102434.66;;;17.22;39.98
70229;BME280;57617;51.988;5.854;2023-05-03T10:13:22;102431.34;;;17.20;39.85
70229;BME280;57617;51.988;5.854;2023-05-03T10:15:56;102438.47;;;17.33;39.50
70229;BME280;57617;51.988;5.854;2023-05-03T10:18:25;102436.41;;;17.40;39.43
70229;BME280;57617;51.988;5.854;2023-05-03T10:20:58;102430.13;;;17.28;38.92
70229;BME280;57617;51.988;5.854;2023-05-03T10:23:25;102430.13;;;17.40;39.51
70229;BME280;57617;51.988;5.854;2023-05-03T10:28:35;102429.91;;;17.74;38.83
70229;BME280;57617;51.988;5.854;2023-05-03T10:31:01;102418.84;;;17.86;38.89
70229;BME280;57617;51.988;5.854;2023-05-03T10:33:30;102413.59;;;18.01;38.36
70229;BME280;57617;51.988;5.854;2023-05-03T10:35:57;102424.75;;;18.11;38.83
70229;BME280;57617;51.988;5.854;2023-05-03T10:38:27;102399.47;;;18.13;38.32
70229;BME280;57617;51.988;5.854;2023-05-03T10:40:54;102414.31;;;18.29;37.96
70229;BME280;57617;51.988;5.854;2023-05-03T10:46:01;102416.72;;;18.42;37.87
70229;BME280;57617;51.988;5.854;2023-05-03T10:48:27;102412.63;;;18.45;37.36
70229;BME280;57617;51.988;5.854;2023-05-03T10:50:54;102403.41;;;18.34;37.53
70229;BME280;57617;51.988;5.854;2023-05-03T10:53:37;102402.78;;;18.49;37.85
70229;BME280;57617;51.988;5.854;2023-05-03T10:56:08;102411.88;;;18.49;37.81
70229;BME280;57617;51.988;5.854;2023-05-03T10:58:36;102402.00;;;18.53;37.46
70229;BME280;57617;51.988;5.854;2023-05-03T11:01:03;102392.91;;;18.69;37.35
70229;BME280;57617;51.988;5.854;2023-05-03T11:03:39;102387.19;;;18.76;36.37
70229;BME280;57617;51.988;5.854;2023-05-03T11:06:07;102383.66;;;18.80;36.76
70229;BME280;57617;51.988;5.854;2023-05-03T11:08:32;102385.03;;;18.78;36.54
70229;BME280;57617;51.988;5.854;2023-05-03T11:11:03;102383.84;;;18.74;36.93
70229;BME280;57617;51.988;5.854;2023-05-03T11:13:34;102379.28;;;18.84;36.64
70229;BME280;57617;51.988;5.854;2023-05-03T11:16:01;102383.19;;;18.88;36.91
70229;BME280;57617;51.988;5.854;2023-05-03T11:18:27;102374.69;;;18.90;36.88
70229;BME280;57617;51.988;5.854;2023-05-03T11:20:53;102368.94;;;18.91;36.75
70229;BME280;57617;51.988;5.854;2023-05-03T11:23:18;102373.34;;;18.92;36.54
70229;BME280;57617;51.988;5.854;2023-05-03T11:25:43;102368.69;;;18.93;36.10
70229;BME280;57617;51.988;5.854;2023-05-03T11:28:09;102361.16;;;18.88;36.19
70229;BME280;57617;51.988;5.854;2023-05-03T11:30:35;102369.50;;;18.93;36.46
70229;BME280;57617;51.988;5.854;2023-05-03T11:33:01;102372.66;;;19.07;36.27
70229;BME280;57617;51.988;5.854;2023-05-03T11:35:28;102374.41;;;19.13;36.19
70229;BME280;57617;51.988;5.854;2023-05-03T11:37:54;102357.88;;;19.13;36.14
70229;BME280;57617;51.988;5.854;2023-05-03T11:40:19;102368.06;;;19.12;34.33
70229;BME280;57617;51.988;5.854;2023-05-03T11:42:56;102357.78;;;19.03;36.11
70229;BME280;57617;51.988;5.854;2023-05-03T11:45:24;102353.78;;;19.15;36.28
70229;BME280;57617;51.988;5.854;2023-05-03T11:47:51;102350.06;;;19.26;36.24
70229;BME280;57617;51.988;5.854;2023-05-03T11:50:17;102337.69;;;19.29;34.36
70229;BME280;57617;51.988;5.854;2023-05-03T11:52:43;102338.81;;;19.33;35.45
70229;BME280;57617;51.988;5.854;2023-05-03T11:55:10;102343.50;;;19.32;35.38
70229;BME280;57617;51.988;5.854;2023-05-03T11:57:36;102347.03;;;19.28;35.13
70229;BME280;57617;51.988;5.854;2023-05-03T12:00:13;102341.56;;;19.33;34.89
70229;BME280;57617;51.988;5.854;2023-05-03T12:02:41;102333.69;;;19.41;34.90
70229;BME280;57617;51.988;5.854;2023-05-03T12:05:07;102334.22;;;19.43;34.90
70229;BME280;57617;51.988;5.854;2023-05-03T12:07:33;102334.63;;;19.57;35.06
70229;BME280;57617;51.988;5.854;2023-05-03T12:09:59;102333.66;;;19.73;34.87
70229;BME280;57617;51.988;5.854;2023-05-03T12:12:26;102319.91;;;19.78;34.35
70229;BME280;57617;51.988;5.854;2023-05-03T12:14:59;102324.81;;;19.71;33.40
70229;BME280;57617;51.988;5.854;2023-05-03T12:17:39;102315.09;;;19.63;33.86
70229;BME280;57617;51.988;5.854;2023-05-03T12:20:17;102323.47;;;19.73;34.60
70229;BME280;57617;51.988;5.854;2023-05-03T12:22:43;102317.06;;;19.68;34.64
70229;BME280;57617;51.988;5.854;2023-05-03T12:25:09;102320.38;;;19.65;34.39
70229;BME280;57617;51.988;5.854;2023-05-03T12:27:34;102315.41;;;19.67;34.69
70229;BME280;57617;51.988;5.854;2023-05-03T12:29:59;102304.97;;;19.74;34.75
70229;BME280;57617;51.988;5.854;2023-05-03T12:32:25;102300.06;;;19.81;34.71
70229;BME280;57617;51.988;5.854;2023-05-03T12:34:54;102300.09;;;19.86;34.44
70229;BME280;57617;51.988;5.854;2023-05-03T12:37:19;102293.81;;;19.95;34.36
70229;BME280;57617;51.988;5.854;2023-05-03T12:39:45;102288.91;;;20.02;34.11
70229;BME280;57617;51.988;5.854;2023-05-03T12:42:10;102281.19;;;20.04;34.02
70229;BME280;57617;51.988;5.854;2023-05-03T12:44:39;102293.44;;;20.18;34.28
70229;BME280;57617;51.988;5.854;2023-05-03T12:47:05;102274.69;;;20.25;34.14
70229;BME280;57617;51.988;5.854;2023-05-03T12:49:30;102281.28;;;20.19;32.68
70229;BME280;57617;51.988;5.854;2023-05-03T12:51:55;102284.28;;;20.13;34.12
70229;BME280;57617;51.988;5.854;2023-05-03T12:54:24;102292.59;;;20.18;33.95
70229;BME280;57617;51.988;5.854;2023-05-03T12:56:49;102269.03;;;20.05;33.36
70229;BME280;57617;51.988;5.854;2023-05-03T12:59:15;102275.72;;;20.09;33.44
70229;BME280;57617;51.988;5.854;2023-05-03T13:01:40;102266.38;;;20.15;33.39
70229;BME280;57617;51.988;5.854;2023-05-03T13:04:06;102259.78;;;20.26;33.54
70229;BME280;57617;51.988;5.854;2023-05-03T13:06:32;102258.44;;;20.34;33.15
70229;BME280;57617;51.988;5.854;2023-05-03T13:08:58;102242.47;;;20.36;33.42
70229;BME280;57617;51.988;5.854;2023-05-03T13:11:23;102243.28;;;20.41;33.32
70229;BME280;57617;51.988;5.854;2023-05-03T13:13:51;102235.28;;;20.45;32.87
70229;BME280;57617;51.988;5.854;2023-05-03T13:16:16;102241.66;;;20.50;33.21